createdAt,value
2023-03-27T00:00:02.338Z,27.30
2023-03-27T00:02:30.375Z,27.30
2023-03-27T00:04:57.892Z,27.40
2023-03-27T00:07:25.446Z,27.50
2023-03-27T00:09:55.348Z,27.70
2023-03-27T00:12:22.957Z,27.80
2023-03-27T00:14:50.531Z,27.70
2023-03-27T00:17:20.357Z,27.80
2023-03-27T00:19:47.964Z,27.80
2023-03-27T00:22:27.289Z,27.90
2023-03-27T00:25:01.219Z,28.00
2023-03-27T00:27:38.662Z,28.00
2023-03-27T00:30:06.626Z,28.10
2023-03-27T00:32:35.406Z,28.20
2023-03-27T00:35:05.821Z,28.30
2023-03-27T00:37:33.630Z,28.40
2023-03-27T00:40:02.698Z,28.40
2023-03-27T00:42:32.510Z,28.60
2023-03-27T00:45:00.296Z,28.60
2023-03-27T00:47:27.891Z,28.60
2023-03-27T00:49:57.771Z,28.60
2023-03-27T00:52:25.699Z,28.70
2023-03-27T00:54:53.243Z,28.70
2023-03-27T00:57:21.052Z,28.80
2023-03-27T00:59:48.710Z,28.90
2023-03-27T01:02:17.201Z,29.00
2023-03-27T01:04:45.079Z,29.00
2023-03-27T01:07:12.755Z,29.00
2023-03-27T01:09:40.437Z,29.00
2023-03-27T01:12:10.172Z,29.10
2023-03-27T01:14:37.881Z,29.20
2023-03-27T01:17:05.433Z,29.30
2023-03-27T01:19:33.240Z,29.40
2023-03-27T01:22:00.928Z,29.50
2023-03-27T01:24:28.522Z,29.50
2023-03-27T01:26:58.682Z,29.60
2023-03-27T01:29:26.476Z,29.70
2023-03-27T01:31:54.138Z,29.80
2023-03-27T01:34:24.301Z,29.80
2023-03-27T01:36:52.018Z,29.90
2023-03-27T01:39:19.590Z,30.00
2023-03-27T01:41:49.713Z,30.00
2023-03-27T01:44:19.214Z,30.10
2023-03-27T01:46:46.814Z,30.20
2023-03-27T01:49:16.900Z,30.20
2023-03-27T01:51:45.664Z,30.30
2023-03-27T01:54:13.182Z,30.40
2023-03-27T01:56:43.208Z,30.40
2023-03-27T01:59:11.431Z,30.50
2023-03-27T02:01:39.026Z,30.50
2023-03-27T02:04:08.984Z,30.50
2023-03-27T02:06:36.682Z,30.60
2023-03-27T02:09:04.249Z,30.70
2023-03-27T02:11:34.233Z,30.70
2023-03-27T02:14:02.053Z,30.80
2023-03-27T02:16:30.557Z,30.90
2023-03-27T02:19:00.516Z,31.00
2023-03-27T02:21:28.511Z,31.00
2023-03-27T02:23:56.047Z,31.10
2023-03-27T02:26:25.925Z,31.20
2023-03-27T02:28:53.848Z,31.40
2023-03-27T02:31:32.900Z,31.30
2023-03-27T02:34:04.310Z,31.40
2023-03-27T02:36:32.247Z,31.50
2023-03-27T02:38:59.797Z,31.70
2023-03-27T02:41:29.870Z,31.80
2023-03-27T02:43:57.784Z,31.80
2023-03-27T02:46:25.633Z,31.90
2023-03-27T02:48:55.603Z,32.00
2023-03-27T02:51:23.196Z,32.00
2023-03-27T02:53:50.756Z,32.20
2023-03-27T02:56:20.676Z,32.20
2023-03-27T02:58:48.226Z,32.20
2023-03-27T03:01:15.789Z,32.20
2023-03-27T03:03:45.565Z,32.20
2023-03-27T03:06:13.135Z,32.30
2023-03-27T03:08:40.754Z,32.40
2023-03-27T03:11:10.765Z,32.40
2023-03-27T03:13:38.326Z,32.60
2023-03-27T03:16:05.855Z,32.60
2023-03-27T03:18:34.901Z,32.70
2023-03-27T03:21:06.061Z,32.90
2023-03-27T03:23:35.521Z,33.00
2023-03-27T03:26:03.723Z,33.10
2023-03-27T03:28:31.260Z,33.20
2023-03-27T03:30:59.690Z,33.30
2023-03-27T03:33:29.697Z,33.30
2023-03-27T03:35:57.340Z,33.20
2023-03-27T03:38:25.172Z,33.30
2023-03-27T03:40:55.967Z,33.40
2023-03-27T03:43:23.753Z,33.50
2023-03-27T03:45:51.381Z,33.70
2023-03-27T03:48:21.739Z,33.60
2023-03-27T03:50:49.280Z,33.80
2023-03-27T03:53:17.907Z,33.90
2023-03-27T03:55:46.869Z,34.00
2023-03-27T03:58:14.556Z,33.90
2023-03-27T04:00:42.171Z,34.10
2023-03-27T04:03:15.435Z,34.00
2023-03-27T04:05:43.580Z,34.10
2023-03-27T04:08:11.163Z,34.20
2023-03-27T04:10:41.348Z,34.30
2023-03-27T04:13:08.950Z,34.30
2023-03-27T04:15:36.565Z,34.30
2023-03-27T04:18:06.572Z,34.20
2023-03-27T04:20:34.391Z,34.30
2023-03-27T04:23:02.052Z,34.20
2023-03-27T04:25:31.849Z,34.30
2023-03-27T04:27:59.603Z,34.40
2023-03-27T04:30:27.204Z,34.50
2023-03-27T04:32:57.296Z,34.50
2023-03-27T04:35:25.027Z,34.40
2023-03-27T04:37:52.648Z,34.40
2023-03-27T04:40:20.552Z,34.50
2023-03-27T04:42:48.441Z,34.70
2023-03-27T04:45:16.347Z,34.80
2023-03-27T04:47:46.634Z,34.70
2023-03-27T04:50:14.497Z,34.70
2023-03-27T04:52:50.174Z,34.80
2023-03-27T04:55:29.941Z,35.00
2023-03-27T04:58:07.192Z,35.10
2023-03-27T05:00:44.058Z,35.20
2023-03-27T05:03:16.607Z,35.20
2023-03-27T05:05:54.030Z,35.30
2023-03-27T05:08:24.555Z,35.50
2023-03-27T05:10:59.298Z,35.40
2023-03-27T05:13:28.063Z,35.30
2023-03-27T05:15:55.964Z,35.40
2023-03-27T05:18:32.277Z,35.30
2023-03-27T05:21:01.358Z,35.40
2023-03-27T05:23:30.507Z,35.70
2023-03-27T05:26:04.386Z,35.60
2023-03-27T05:28:35.256Z,36.00
2023-03-27T05:31:06.005Z,35.80
2023-03-27T05:33:33.834Z,35.80
2023-03-27T05:36:01.581Z,35.90
2023-03-27T05:38:31.063Z,35.90
2023-03-27T05:40:58.862Z,36.10
2023-03-27T05:43:28.504Z,36.30
2023-03-27T05:45:56.453Z,36.50
2023-03-27T05:48:24.267Z,36.70
2023-03-27T05:50:52.005Z,36.40
2023-03-27T05:53:27.775Z,36.50
2023-03-27T05:56:02.867Z,36.60
2023-03-27T05:58:33.418Z,36.60
2023-03-27T06:01:01.181Z,36.70
2023-03-27T06:03:28.913Z,36.60
2023-03-27T06:05:57.860Z,37.00
2023-03-27T06:08:25.473Z,37.00
2023-03-27T06:10:53.183Z,36.90
2023-03-27T06:13:21.310Z,37.10
2023-03-27T06:15:49.664Z,37.30
2023-03-27T06:18:20.252Z,37.60
2023-03-27T06:20:48.175Z,37.40
2023-03-27T06:23:16.098Z,37.50
2023-03-27T06:25:44.031Z,37.50
2023-03-27T06:28:11.860Z,37.50
2023-03-27T06:30:39.579Z,37.60
2023-03-27T06:33:07.295Z,37.50
2023-03-27T06:35:37.476Z,37.70
2023-03-27T06:38:05.165Z,37.60
2023-03-27T06:40:32.900Z,37.60
2023-03-27T06:43:01.137Z,37.80
2023-03-27T06:45:29.807Z,37.90
2023-03-27T06:48:15.537Z,37.70
2023-03-27T06:50:45.622Z,37.60
2023-03-27T06:53:25.731Z,37.60
2023-03-27T06:55:57.768Z,37.70
2023-03-27T06:58:25.750Z,37.70
2023-03-27T07:00:53.329Z,37.90
2023-03-27T07:03:23.506Z,38.20
2023-03-27T07:05:51.122Z,37.80
2023-03-27T07:11:03.835Z,38.00
2023-03-27T07:13:35.382Z,38.10
2023-03-27T07:16:03.403Z,38.10
2023-03-27T07:18:31.143Z,38.00
2023-03-27T07:20:59.129Z,38.00
2023-03-27T07:23:29.596Z,38.00
2023-03-27T07:25:57.455Z,38.00
2023-03-27T07:28:25.181Z,37.70
2023-03-27T07:30:53.085Z,37.80
2023-03-27T07:33:20.682Z,38.10
2023-03-27T07:35:48.295Z,38.20
2023-03-27T07:38:18.445Z,38.30
2023-03-27T07:40:46.309Z,38.10
2023-03-27T07:43:14.138Z,38.10
2023-03-27T07:45:44.908Z,38.10
2023-03-27T07:48:12.841Z,38.00
2023-03-27T07:50:40.506Z,38.00
2023-03-27T07:53:33.732Z,38.20
2023-03-27T07:55:59.165Z,38.10
2023-03-27T07:58:29.549Z,38.10
2023-03-27T08:00:57.497Z,38.10
2023-03-27T08:03:25.259Z,38.10
2023-03-27T08:05:56.063Z,38.00
2023-03-27T08:08:27.342Z,38.20
2023-03-27T08:10:55.636Z,38.20
2023-03-27T08:13:25.945Z,38.20
2023-03-27T08:15:54.002Z,38.10
2023-03-27T08:18:21.949Z,38.00
2023-03-27T08:20:51.554Z,38.00
2023-03-27T08:23:19.121Z,38.10
2023-03-27T08:25:46.924Z,38.00
2023-03-27T08:28:15.938Z,37.90
2023-03-27T08:30:43.502Z,38.00
2023-03-27T08:33:11.338Z,38.00
2023-03-27T08:35:41.336Z,38.00
2023-03-27T08:38:20.027Z,38.10
2023-03-27T08:40:56.110Z,38.00
2023-03-27T08:43:23.912Z,37.90
2023-03-27T08:45:52.234Z,37.90
2023-03-27T08:48:22.285Z,37.80
2023-03-27T08:50:49.847Z,37.70
2023-03-27T08:53:17.479Z,37.70
2023-03-27T08:55:47.812Z,37.70
2023-03-27T08:58:15.489Z,37.80
2023-03-27T09:00:43.042Z,37.70
2023-03-27T09:03:13.597Z,37.70
2023-03-27T09:05:41.305Z,37.60
2023-03-27T09:08:08.905Z,37.70
2023-03-27T09:10:38.943Z,37.70
2023-03-27T09:13:06.677Z,37.50
2023-03-27T09:15:34.369Z,37.50
2023-03-27T09:18:04.784Z,37.40
2023-03-27T09:20:32.487Z,37.50
2023-03-27T09:23:00.052Z,37.40
2023-03-27T09:25:29.585Z,37.40
2023-03-27T09:27:57.128Z,37.30
2023-03-27T09:30:24.703Z,37.20
2023-03-27T09:32:52.744Z,37.20
2023-03-27T09:35:20.336Z,37.10
2023-03-27T09:37:48.103Z,37.10
2023-03-27T09:40:18.950Z,37.10
2023-03-27T09:42:46.557Z,37.00
2023-03-27T09:45:14.309Z,36.90
2023-03-27T09:47:44.824Z,36.80
2023-03-27T09:50:12.475Z,36.80
2023-03-27T09:52:40.093Z,36.80
2023-03-27T09:55:10.782Z,36.80
2023-03-27T09:57:38.336Z,36.70
2023-03-27T10:00:05.888Z,36.60
2023-03-27T10:02:36.440Z,36.50
2023-03-27T10:05:04.187Z,36.40
2023-03-27T10:07:32.389Z,36.30
2023-03-27T10:10:02.525Z,36.30
2023-03-27T10:12:30.076Z,36.30
2023-03-27T10:14:57.684Z,36.30
2023-03-27T10:17:31.855Z,36.20
2023-03-27T10:19:59.414Z,36.20
2023-03-27T10:22:26.961Z,36.10
2023-03-27T10:24:57.460Z,36.00
2023-03-27T10:27:25.096Z,35.90
2023-03-27T10:29:53.571Z,35.80
2023-03-27T10:32:22.314Z,35.80
2023-03-27T10:34:49.853Z,35.70
2023-03-27T10:37:17.377Z,35.70
2023-03-27T10:39:47.546Z,35.60
2023-03-27T10:42:15.228Z,35.50
2023-03-27T10:44:42.797Z,35.40
2023-03-27T10:47:12.961Z,35.20
2023-03-27T10:49:40.548Z,35.10
2023-03-27T10:52:08.271Z,35.10
2023-03-27T10:54:38.684Z,35.00
2023-03-27T10:57:06.598Z,34.80
2023-03-27T10:59:41.526Z,34.80
2023-03-27T11:02:12.295Z,34.80
2023-03-27T11:04:40.739Z,34.70
2023-03-27T11:07:08.314Z,34.70
2023-03-27T11:09:38.616Z,34.70
2023-03-27T11:12:06.184Z,34.60
2023-03-27T11:14:33.794Z,34.60
2023-03-27T11:17:04.271Z,34.60
2023-03-27T11:19:33.500Z,34.50
2023-03-27T11:22:01.292Z,34.40
2023-03-27T11:24:31.898Z,34.30
2023-03-27T11:26:59.475Z,34.20
2023-03-27T11:29:27.408Z,34.10
2023-03-27T11:31:55.741Z,34.00
2023-03-27T11:34:29.058Z,34.00
2023-03-27T11:37:01.123Z,34.10
2023-03-27T11:39:29.294Z,34.00
2023-03-27T11:41:57.844Z,33.90
2023-03-27T11:44:28.403Z,33.80
2023-03-27T11:46:59.845Z,33.80
2023-03-27T11:49:28.548Z,33.60
2023-03-27T11:51:57.599Z,33.60
2023-03-27T11:54:31.631Z,33.70
2023-03-27T11:56:59.850Z,33.60
2023-03-27T11:59:27.602Z,33.60
2023-03-27T12:01:55.948Z,33.50
2023-03-27T12:04:25.804Z,33.40
2023-03-27T12:06:53.407Z,33.50
2023-03-27T12:09:21.160Z,33.40
2023-03-27T12:11:49.149Z,33.30
2023-03-27T12:14:18.610Z,33.20
2023-03-27T12:16:47.459Z,33.20
2023-03-27T12:19:27.777Z,33.20
2023-03-27T12:21:58.105Z,33.10
2023-03-27T12:24:32.959Z,33.20
2023-03-27T12:27:04.319Z,33.20
2023-03-27T12:29:38.019Z,33.10
2023-03-27T12:32:06.876Z,33.00
2023-03-27T12:34:40.759Z,33.00
2023-03-27T12:37:13.624Z,32.90
2023-03-27T12:39:51.878Z,32.90
2023-03-27T12:42:19.839Z,33.00
2023-03-27T12:44:49.674Z,32.90
2023-03-27T12:47:17.317Z,32.80
2023-03-27T12:49:48.175Z,32.70
2023-03-27T12:52:19.394Z,32.70
2023-03-27T12:54:47.424Z,32.70
2023-03-27T12:57:15.284Z,32.70
2023-03-27T12:59:45.488Z,32.70
2023-03-27T13:02:13.429Z,32.70
2023-03-27T13:04:41.062Z,32.70
2023-03-27T13:07:11.631Z,32.60
2023-03-27T13:09:39.415Z,32.50
2023-03-27T13:12:07.033Z,32.50
2023-03-27T13:14:40.283Z,32.50
2023-03-27T13:17:08.913Z,32.50
2023-03-27T13:19:36.989Z,32.40
2023-03-27T13:22:09.163Z,32.30
2023-03-27T13:24:37.323Z,32.20
2023-03-27T13:27:04.883Z,32.30
2023-03-27T13:29:34.673Z,32.30
2023-03-27T13:32:02.328Z,32.30
2023-03-27T13:34:30.248Z,32.40
2023-03-27T13:37:06.579Z,32.40
2023-03-27T13:39:35.704Z,32.40
2023-03-27T13:44:49.263Z,32.40
2023-03-27T13:47:30.327Z,32.30
2023-03-27T13:50:03.396Z,32.40
2023-03-27T13:52:31.427Z,32.40
2023-03-27T13:54:59.195Z,32.40
2023-03-27T13:57:29.690Z,32.40
2023-03-27T13:59:57.345Z,32.30
2023-03-27T14:02:25.225Z,32.30
2023-03-27T14:04:55.513Z,32.30
2023-03-27T14:07:24.137Z,32.30
2023-03-27T14:09:52.027Z,32.30
2023-03-27T14:12:21.789Z,32.30
2023-03-27T14:14:49.398Z,32.20
2023-03-27T14:17:16.935Z,32.10
2023-03-27T14:19:48.557Z,32.20
2023-03-27T14:22:16.700Z,32.10
2023-03-27T14:24:44.699Z,32.10
2023-03-27T14:27:12.613Z,32.00
2023-03-27T14:29:41.194Z,31.90
2023-03-27T14:32:09.379Z,31.90
2023-03-27T14:34:51.079Z,32.00
2023-03-27T14:37:21.245Z,32.00
2023-03-27T14:39:51.464Z,31.90
2023-03-27T14:42:19.054Z,31.90
2023-03-27T14:44:48.349Z,31.90
2023-03-27T14:47:18.347Z,31.80
2023-03-27T14:49:45.963Z,31.70
2023-03-27T14:52:14.194Z,31.80
2023-03-27T14:54:54.786Z,31.80
2023-03-27T14:57:23.241Z,31.70
2023-03-27T14:59:53.268Z,31.70
2023-03-27T15:02:20.875Z,31.60
2023-03-27T15:04:48.615Z,31.60
2023-03-27T15:07:18.724Z,31.60
2023-03-27T15:09:46.924Z,31.60
2023-03-27T15:12:14.725Z,31.50
2023-03-27T15:14:44.713Z,31.50
2023-03-27T15:17:12.262Z,31.50
2023-03-27T15:19:40.000Z,31.50
2023-03-27T15:22:09.825Z,31.30
2023-03-27T15:24:37.428Z,31.30
2023-03-27T15:27:05.119Z,31.30
2023-03-27T15:29:35.043Z,31.40
2023-03-27T15:32:02.741Z,31.30
2023-03-27T15:34:30.469Z,31.30
2023-03-27T15:37:00.438Z,31.30
2023-03-27T15:39:28.073Z,31.30
2023-03-27T15:41:55.749Z,31.30
2023-03-27T15:44:25.705Z,31.30
2023-03-27T15:46:53.378Z,31.20
2023-03-27T15:49:21.131Z,31.30
2023-03-27T15:51:51.128Z,31.20
2023-03-27T15:54:18.731Z,31.10
2023-03-27T15:56:46.507Z,31.10
2023-03-27T15:59:16.584Z,31.10
2023-03-27T16:01:44.448Z,31.00
2023-03-27T16:04:12.480Z,31.00
2023-03-27T16:06:42.524Z,30.90
2023-03-27T16:09:10.152Z,30.90
2023-03-27T16:11:37.963Z,30.80
2023-03-27T16:14:07.435Z,30.80
2023-03-27T16:16:35.080Z,30.80
2023-03-27T16:19:02.766Z,30.80
2023-03-27T16:21:32.974Z,30.60
2023-03-27T16:24:00.526Z,30.70
2023-03-27T16:26:28.379Z,30.80
2023-03-27T16:28:58.155Z,30.70
2023-03-27T16:31:25.782Z,30.50
2023-03-27T16:33:53.768Z,30.60
2023-03-27T16:36:23.683Z,30.60
2023-03-27T16:38:51.378Z,30.60
2023-03-27T16:41:19.008Z,30.60
2023-03-27T16:43:47.546Z,30.60
2023-03-27T16:46:15.136Z,30.60
2023-03-27T16:48:42.890Z,30.50
2023-03-27T16:51:12.850Z,30.50
2023-03-27T16:53:40.434Z,30.50
2023-03-27T16:56:08.947Z,30.40
2023-03-27T16:58:36.674Z,30.50
2023-03-27T17:01:04.329Z,30.40
2023-03-27T17:03:32.046Z,30.40
2023-03-27T17:06:01.934Z,30.40
2023-03-27T17:08:29.564Z,30.40
2023-03-27T17:10:57.391Z,30.40
2023-03-27T17:13:27.231Z,30.40
2023-03-27T17:15:54.855Z,30.50
2023-03-27T17:18:22.760Z,30.50
2023-03-27T17:20:52.562Z,30.40
2023-03-27T17:23:20.175Z,30.20
2023-03-27T17:25:47.731Z,30.20
2023-03-27T17:28:17.502Z,30.30
2023-03-27T17:30:56.591Z,30.20
2023-03-27T17:33:34.118Z,30.20
2023-03-27T17:36:02.238Z,30.10
2023-03-27T17:38:30.380Z,30.10
2023-03-27T17:40:58.046Z,30.10
2023-03-27T17:43:25.661Z,30.20
2023-03-27T17:45:53.288Z,30.20
2023-03-27T17:48:21.122Z,30.10
2023-03-27T17:51:01.151Z,30.10
2023-03-27T17:53:37.807Z,30.10
2023-03-27T17:56:05.352Z,30.20
2023-03-27T17:58:33.336Z,30.20
2023-03-27T18:01:03.334Z,30.20
2023-03-27T18:03:31.414Z,30.20
2023-03-27T18:05:59.752Z,30.10
2023-03-27T18:08:30.089Z,30.00
2023-03-27T18:10:57.817Z,30.00
2023-03-27T18:13:26.292Z,30.00
2023-03-27T18:15:57.944Z,30.10
2023-03-27T18:18:25.714Z,30.00
2023-03-27T18:20:54.203Z,29.90
2023-03-27T18:23:24.119Z,30.00
2023-03-27T18:25:51.736Z,29.90
2023-03-27T18:28:19.287Z,30.00
2023-03-27T18:30:49.134Z,30.00
2023-03-27T18:33:16.814Z,29.90
2023-03-27T18:35:44.455Z,30.00
2023-03-27T18:38:14.213Z,29.90
2023-03-27T18:40:41.759Z,29.90
2023-03-27T18:43:09.969Z,29.80
2023-03-27T18:45:40.766Z,29.80
2023-03-27T18:48:08.545Z,29.70
2023-03-27T18:50:36.233Z,29.70
2023-03-27T18:53:06.022Z,29.70
2023-03-27T18:55:33.667Z,29.60
2023-03-27T18:58:01.232Z,29.60
2023-03-27T19:00:28.945Z,29.60
2023-03-27T19:02:56.781Z,29.60
2023-03-27T19:05:24.521Z,29.50
2023-03-27T19:07:54.295Z,29.50
2023-03-27T19:10:21.890Z,29.50
2023-03-27T19:12:49.464Z,29.50
2023-03-27T19:15:20.492Z,29.50
2023-03-27T19:17:48.207Z,29.60
2023-03-27T19:20:15.797Z,29.50
2023-03-27T19:22:45.972Z,29.50
2023-03-27T19:25:14.992Z,29.50
2023-03-27T19:27:42.592Z,29.40
2023-03-27T19:30:12.477Z,29.30
2023-03-27T19:32:40.175Z,29.30
2023-03-27T19:35:07.830Z,29.30
2023-03-27T19:37:37.955Z,29.20
2023-03-27T19:40:05.522Z,29.00
2023-03-27T19:42:33.150Z,29.20
2023-03-27T19:45:03.191Z,29.20
2023-03-27T19:47:33.068Z,29.20
2023-03-27T19:50:00.722Z,29.30
2023-03-27T19:52:28.222Z,29.10
2023-03-27T19:54:57.938Z,29.00
2023-03-27T19:57:25.543Z,29.00
2023-03-27T19:59:53.208Z,29.10
2023-03-27T20:02:23.137Z,29.00
2023-03-27T20:04:51.361Z,29.00
2023-03-27T20:07:18.925Z,29.10
2023-03-27T20:09:48.698Z,29.10
2023-03-27T20:12:16.340Z,29.10
2023-03-27T20:14:48.537Z,29.10
2023-03-27T20:17:28.085Z,29.00
2023-03-27T20:19:57.997Z,29.00
2023-03-27T20:22:28.000Z,29.00
2023-03-27T20:24:55.589Z,28.90
2023-03-27T20:27:23.364Z,28.90
2023-03-27T20:29:53.439Z,28.80
2023-03-27T20:32:21.049Z,28.70
2023-03-27T20:34:48.970Z,28.70
2023-03-27T20:37:19.045Z,28.70
2023-03-27T20:39:46.698Z,28.60
2023-03-27T20:42:14.306Z,28.70
2023-03-27T20:44:44.132Z,28.80
2023-03-27T20:47:12.444Z,28.90
2023-03-27T20:49:41.455Z,28.90
2023-03-27T20:52:11.598Z,28.80
2023-03-27T20:54:39.208Z,28.90
2023-03-27T20:57:06.867Z,28.80
2023-03-27T20:59:36.723Z,28.80
2023-03-27T21:02:04.760Z,28.80
2023-03-27T21:04:33.127Z,28.80
2023-03-27T21:07:03.038Z,28.80
2023-03-27T21:09:30.583Z,28.80
2023-03-27T21:11:58.245Z,28.80
2023-03-27T21:14:28.062Z,28.80
2023-03-27T21:16:55.647Z,28.70
2023-03-27T21:19:23.222Z,28.80
2023-03-27T21:21:53.084Z,28.70
2023-03-27T21:24:20.666Z,28.70
2023-03-27T21:26:48.265Z,28.60
2023-03-27T21:29:15.927Z,28.70
2023-03-27T21:31:55.773Z,28.70
2023-03-27T21:34:24.926Z,28.60
2023-03-27T21:36:52.545Z,28.60
2023-03-27T21:39:20.130Z,28.60
2023-03-27T21:41:49.926Z,28.60
2023-03-27T21:44:17.519Z,28.60
2023-03-27T21:46:45.097Z,28.60
2023-03-27T21:49:19.068Z,28.60
2023-03-27T21:51:46.660Z,28.50
2023-03-27T21:54:14.420Z,28.50
2023-03-27T21:56:44.264Z,28.40
2023-03-27T21:59:11.939Z,28.60
2023-03-27T22:01:39.690Z,28.50
2023-03-27T22:04:07.410Z,28.50
2023-03-27T22:06:35.132Z,28.40
2023-03-27T22:09:03.025Z,28.30
2023-03-27T22:11:32.954Z,28.30
2023-03-27T22:14:00.599Z,28.20
2023-03-27T22:16:28.559Z,28.30
2023-03-27T22:18:58.304Z,28.30
2023-03-27T22:21:25.894Z,28.20
2023-03-27T22:23:53.594Z,28.30
2023-03-27T22:26:23.397Z,28.30
2023-03-27T22:28:51.054Z,28.20
2023-03-27T22:31:18.823Z,28.20
2023-03-27T22:33:46.489Z,28.20
2023-03-27T22:36:14.108Z,28.20
2023-03-27T22:38:42.579Z,28.20
2023-03-27T22:41:12.558Z,28.10
2023-03-27T22:43:49.526Z,28.10
2023-03-27T22:46:24.006Z,28.10
2023-03-27T22:48:53.585Z,28.00
2023-03-27T22:51:21.816Z,27.90
2023-03-27T22:53:51.850Z,27.90
2023-03-27T22:56:20.009Z,27.90
2023-03-27T22:58:48.396Z,27.90
2023-03-27T23:01:18.847Z,27.80
2023-03-27T23:03:48.411Z,27.90
2023-03-27T23:06:16.384Z,27.90
2023-03-27T23:08:46.326Z,27.80
2023-03-27T23:11:14.397Z,27.80
2023-03-27T23:13:41.973Z,27.80
2023-03-27T23:16:10.879Z,27.80
2023-03-27T23:18:38.686Z,27.80
2023-03-27T23:21:06.314Z,27.80
2023-03-27T23:23:34.001Z,27.70
2023-03-27T23:26:01.868Z,27.90
2023-03-27T23:28:30.025Z,27.80
2023-03-27T23:30:59.800Z,27.70
2023-03-27T23:33:27.419Z,27.70
2023-03-27T23:35:55.139Z,27.80
2023-03-27T23:38:24.969Z,27.80
2023-03-27T23:40:52.621Z,27.80
2023-03-27T23:43:20.284Z,27.90
2023-03-27T23:45:48.070Z,27.90
2023-03-27T23:48:15.748Z,27.90
2023-03-27T23:50:43.296Z,27.90
2023-03-27T23:53:13.168Z,28.00
2023-03-27T23:55:40.989Z,27.90
2023-03-27T23:58:08.540Z,28.00
